Time;durP1;ratioP1;P1;durP2;ratioP2;P2;SDS_P1;SDS_P2;PMS_P1;PMS_P2;Temp;Humidity;BMP_temperature;BMP_pressure;BME280_temperature;BME280_humidity;BME280_pressure;Samples;Min_cycle;Max_cycle;Signal;HPM_P1;HPM_P2
2024/03/27 00:01:31;;;;;;;;;;;22.90;51.60;;;;;;5067816;28;19938;-48
2024/03/27 00:03:57;;;;;;;;;;;22.90;51.70;;;;;;5066384;28;19920;-46
2024/03/27 00:06:23;;;;;;;;;;;22.80;51.60;;;;;;5074216;28;19913;-50
2024/03/27 00:08:49;;;;;;;;;;;22.80;51.60;;;;;;5079074;28;19976;-49
2024/03/27 00:11:17;;;;;;;;;;;22.80;51.60;;;;;;5071281;28;19912;-48
2024/03/27 00:13:43;;;;;;;;;;;22.80;51.50;;;;;;5069181;28;19979;-47
2024/03/27 00:16:09;;;;;;;;;;;22.80;51.60;;;;;;5066543;28;20636;-47
2024/03/27 00:18:36;;;;;;;;;;;22.90;51.60;;;;;;5073765;28;19956;-46
2024/03/27 00:21:03;;;;;;;;;;;22.90;51.50;;;;;;5070571;28;19916;-44
2024/03/27 00:23:29;;;;;;;;;;;22.90;51.50;;;;;;5074557;28;19908;-48
2024/03/27 00:25:56;;;;;;;;;;;22.80;51.50;;;;;;5073013;28;19909;-47
2024/03/27 00:28:22;;;;;;;;;;;22.80;51.50;;;;;;5077736;28;19915;-46
2024/03/27 00:30:49;;;;;;;;;;;22.80;51.50;;;;;;5055679;28;19954;-47
2024/03/27 00:33:16;;;;;;;;;;;22.80;51.50;;;;;;5086289;28;19916;-48
2024/03/27 00:35:42;;;;;;;;;;;22.80;51.60;;;;;;5070589;28;19919;-46
2024/03/27 00:38:09;;;;;;;;;;;22.80;51.60;;;;;;5067325;28;20019;-46
2024/03/27 00:40:35;;;;;;;;;;;22.90;51.50;;;;;;5065663;28;19912;-49
2024/03/27 00:43:01;;;;;;;;;;;22.90;51.60;;;;;;5071294;28;19916;-50
2024/03/27 00:45:27;;;;;;;;;;;22.80;51.50;;;;;;5070684;28;19921;-44
2024/03/27 00:47:54;;;;;;;;;;;22.80;51.50;;;;;;5067724;28;19912;-50
2024/03/27 00:50:20;;;;;;;;;;;22.80;51.60;;;;;;5052496;28;19978;-51
2024/03/27 00:52:49;;;;;;;;;;;22.80;51.60;;;;;;5069621;28;19934;-48
2024/03/27 00:55:15;;;;;;;;;;;22.80;51.50;;;;;;5069468;28;19921;-48
2024/03/27 00:57:42;;;;;;;;;;;22.80;51.60;;;;;;5065651;28;19963;-46
2024/03/27 01:00:10;;;;;;;;;;;22.80;51.50;;;;;;5064540;28;19947;-47
2024/03/27 01:02:37;;;;;;;;;;;22.80;51.40;;;;;;5070492;28;19920;-47
2024/03/27 01:05:03;;;;;;;;;;;22.80;51.40;;;;;;5071242;28;19927;-45
2024/03/27 01:07:29;;;;;;;;;;;22.80;51.40;;;;;;5075776;28;19915;-48
2024/03/27 01:09:56;;;;;;;;;;;22.80;51.40;;;;;;5075398;28;19908;-50
2024/03/27 01:12:22;;;;;;;;;;;22.80;51.40;;;;;;5076707;28;19912;-44
2024/03/27 01:14:50;;;;;;;;;;;22.70;51.40;;;;;;5083176;28;19981;-48
2024/03/27 01:17:16;;;;;;;;;;;22.70;51.50;;;;;;5082244;28;20007;-47
2024/03/27 01:19:47;;;;;;;;;;;22.80;51.40;;;;;;5083856;28;19913;-48
2024/03/27 01:22:14;;;;;;;;;;;22.80;51.40;;;;;;5073305;28;19922;-44
2024/03/27 01:24:44;;;;;;;;;;;22.80;51.40;;;;;;5076810;28;19977;-48
2024/03/27 01:27:11;;;;;;;;;;;22.80;51.40;;;;;;5080567;28;19942;-46
2024/03/27 01:29:38;;;;;;;;;;;22.80;51.40;;;;;;5078240;28;19919;-46
2024/03/27 01:32:04;;;;;;;;;;;22.70;51.40;;;;;;5079687;28;20467;-45
2024/03/27 01:34:31;;;;;;;;;;;22.70;51.40;;;;;;5094214;28;19912;-46
2024/03/27 01:36:57;;;;;;;;;;;22.70;51.40;;;;;;5068718;28;20415;-47
2024/03/27 01:39:25;;;;;;;;;;;22.70;51.40;;;;;;5078639;28;19917;-46
2024/03/27 01:41:52;;;;;;;;;;;22.80;51.30;;;;;;5072439;28;19920;-47
2024/03/27 01:44:18;;;;;;;;;;;22.80;51.30;;;;;;5064606;28;19932;-46
2024/03/27 01:46:48;;;;;;;;;;;22.80;51.40;;;;;;5073378;28;19913;-48
2024/03/27 01:49:15;;;;;;;;;;;22.70;51.40;;;;;;5081036;28;19917;-45
2024/03/27 01:51:41;;;;;;;;;;;22.70;51.40;;;;;;5081046;28;19912;-46
2024/03/27 01:54:08;;;;;;;;;;;22.70;51.40;;;;;;5070612;28;19948;-44
2024/03/27 01:56:39;;;;;;;;;;;22.70;51.30;;;;;;5072662;28;19912;-47
2024/03/27 01:59:07;;;;;;;;;;;22.70;51.40;;;;;;5086133;28;20356;-48
2024/03/27 02:01:35;;;;;;;;;;;22.70;51.40;;;;;;5076750;28;19921;-48
2024/03/27 02:04:02;;;;;;;;;;;22.80;51.30;;;;;;5071639;28;19912;-44
2024/03/27 02:06:31;;;;;;;;;;;22.80;51.30;;;;;;5073226;28;19913;-47
2024/03/27 02:09:00;;;;;;;;;;;22.70;51.20;;;;;;5075369;28;20372;-44
2024/03/27 02:11:28;;;;;;;;;;;22.70;51.30;;;;;;5076261;28;19912;-49
2024/03/27 02:13:54;;;;;;;;;;;22.70;51.40;;;;;;5083016;28;19949;-44
2024/03/27 02:16:21;;;;;;;;;;;22.70;51.40;;;;;;5065150;28;19913;-48
2024/03/27 02:18:47;;;;;;;;;;;22.70;51.40;;;;;;5073836;28;19920;-44
2024/03/27 02:21:15;;;;;;;;;;;22.70;51.30;;;;;;5065663;28;19943;-47
2024/03/27 02:23:44;;;;;;;;;;;22.70;51.20;;;;;;5069711;28;19986;-47
2024/03/27 02:26:13;;;;;;;;;;;22.70;51.20;;;;;;5083644;28;19913;-48
2024/03/27 02:28:41;;;;;;;;;;;22.70;51.20;;;;;;5077852;28;19994;-45
2024/03/27 02:31:07;;;;;;;;;;;22.70;51.30;;;;;;5066414;28;19919;-46
2024/03/27 02:33:35;;;;;;;;;;;22.70;51.30;;;;;;5076426;28;19921;-44
2024/03/27 02:36:01;;;;;;;;;;;22.70;51.30;;;;;;5072457;28;19913;-44
2024/03/27 02:38:27;;;;;;;;;;;22.60;51.20;;;;;;5085916;28;19921;-46
2024/03/27 02:40:53;;;;;;;;;;;22.60;51.20;;;;;;5073479;28;20397;-48
2024/03/27 02:43:20;;;;;;;;;;;22.70;51.30;;;;;;5070352;28;19916;-47
2024/03/27 02:45:46;;;;;;;;;;;22.70;51.30;;;;;;5072377;28;19943;-44
2024/03/27 02:48:14;;;;;;;;;;;22.70;51.20;;;;;;5063194;28;19986;-45
2024/03/27 02:50:40;;;;;;;;;;;22.70;51.20;;;;;;5071527;28;19967;-45
2024/03/27 02:53:07;;;;;;;;;;;22.70;51.30;;;;;;5080229;28;19919;-46
2024/03/27 02:55:33;;;;;;;;;;;22.70;51.20;;;;;;5073381;28;19916;-46
2024/03/27 02:57:59;;;;;;;;;;;22.60;51.20;;;;;;5074996;28;19924;-45
2024/03/27 03:00:25;;;;;;;;;;;22.60;51.30;;;;;;5077773;28;19912;-49
2024/03/27 03:02:51;;;;;;;;;;;22.70;51.30;;;;;;5068977;28;19948;-44
2024/03/27 03:05:17;;;;;;;;;;;22.70;51.20;;;;;;5071373;28;19978;-48
2024/03/27 03:07:45;;;;;;;;;;;22.70;51.20;;;;;;5064964;28;19955;-46
2024/03/27 03:10:11;;;;;;;;;;;22.70;51.20;;;;;;5079240;28;19912;-44
2024/03/27 03:12:38;;;;;;;;;;;22.70;51.20;;;;;;5082516;28;19934;-44
2024/03/27 03:15:05;;;;;;;;;;;22.60;51.20;;;;;;5071538;28;20018;-44
2024/03/27 03:17:32;;;;;;;;;;;22.60;51.20;;;;;;5076449;28;19983;-48
2024/03/27 03:20:00;;;;;;;;;;;22.60;51.20;;;;;;5073760;28;19946;-44
2024/03/27 03:22:26;;;;;;;;;;;22.60;51.30;;;;;;5081768;28;19913;-47
2024/03/27 03:24:53;;;;;;;;;;;22.70;51.10;;;;;;5066860;28;19919;-46
2024/03/27 03:27:19;;;;;;;;;;;22.70;51.10;;;;;;5070405;28;19912;-46
2024/03/27 03:30:05;;;;;;;;;;;22.70;51.20;;;;;;5064000;28;19912;-45
2024/03/27 03:32:34;;;;;;;;;;;22.70;51.20;;;;;;5077339;28;19916;-49
2024/03/27 03:35:00;;;;;;;;;;;22.60;51.20;;;;;;5072458;28;19909;-47
2024/03/27 03:37:28;;;;;;;;;;;22.60;51.20;;;;;;5064887;28;20353;-46
2024/03/27 03:39:54;;;;;;;;;;;22.60;51.20;;;;;;5064833;28;20007;-47
2024/03/27 03:42:20;;;;;;;;;;;22.70;51.20;;;;;;5065069;28;20680;-45
2024/03/27 03:44:46;;;;;;;;;;;22.70;51.10;;;;;;5066194;28;19920;-47
2024/03/27 03:47:12;;;;;;;;;;;22.70;51.10;;;;;;5067577;28;19937;-45
2024/03/27 03:49:39;;;;;;;;;;;22.70;51.10;;;;;;5068678;28;19948;-46
2024/03/27 03:52:05;;;;;;;;;;;22.60;51.10;;;;;;5064395;28;19913;-45
2024/03/27 03:54:31;;;;;;;;;;;22.60;51.10;;;;;;5071667;28;20061;-44
2024/03/27 03:56:57;;;;;;;;;;;22.60;51.20;;;;;;5064717;28;19913;-46
2024/03/27 03:59:23;;;;;;;;;;;22.60;51.10;;;;;;5065013;28;20657;-49
2024/03/27 04:01:49;;;;;;;;;;;22.60;51.20;;;;;;5068553;28;19916;-49
2024/03/27 04:04:15;;;;;;;;;;;22.70;51.10;;;;;;5068810;28;19919;-45
2024/03/27 04:06:41;;;;;;;;;;;22.70;51.10;;;;;;5066165;28;20048;-46
2024/03/27 04:09:08;;;;;;;;;;;22.70;51.10;;;;;;5079711;28;19908;-44
2024/03/27 04:11:34;;;;;;;;;;;22.60;51.10;;;;;;5081385;28;19936;-49
2024/03/27 04:14:00;;;;;;;;;;;22.60;51.10;;;;;;5072854;28;19909;-47
2024/03/27 04:16:26;;;;;;;;;;;22.60;51.70;;;;;;5074005;28;20019;-49
2024/03/27 04:18:52;;;;;;;;;;;22.60;51.20;;;;;;5069906;28;19980;-46
2024/03/27 04:21:18;;;;;;;;;;;22.60;51.20;;;;;;5073530;28;19912;-46
2024/03/27 04:23:44;;;;;;;;;;;22.60;51.10;;;;;;5080281;28;19913;-44
2024/03/27 04:26:11;;;;;;;;;;;22.70;51.10;;;;;;5073206;28;19912;-44
2024/03/27 04:28:36;;;;;;;;;;;22.60;51.10;;;;;;5085868;28;19912;-43
2024/03/27 04:31:03;;;;;;;;;;;22.60;51.10;;;;;;5070067;28;19916;-47
2024/03/27 04:33:29;;;;;;;;;;;22.60;51.10;;;;;;5084152;28;20003;-44
2024/03/27 04:35:55;;;;;;;;;;;22.60;51.10;;;;;;5081869;28;19912;-44
2024/03/27 04:38:21;;;;;;;;;;;22.60;51.10;;;;;;5078172;28;19947;-44
2024/03/27 04:40:47;;;;;;;;;;;22.60;51.10;;;;;;5077743;28;19911;-47
2024/03/27 04:43:13;;;;;;;;;;;22.70;51.10;;;;;;5077260;28;20011;-50
2024/03/27 04:45:39;;;;;;;;;;;22.70;51.00;;;;;;5084453;28;19956;-45
2024/03/27 04:48:05;;;;;;;;;;;22.70;51.10;;;;;;5083977;28;20447;-46
2024/03/27 04:50:31;;;;;;;;;;;22.60;51.10;;;;;;5084552;28;19912;-45
2024/03/27 04:52:57;;;;;;;;;;;22.60;51.10;;;;;;5082167;28;19919;-46
2024/03/27 04:55:22;;;;;;;;;;;22.60;51.10;;;;;;5077430;28;20371;-49
2024/03/27 04:57:48;;;;;;;;;;;22.50;51.10;;;;;;5083082;28;19920;-47
2024/03/27 05:00:15;;;;;;;;;;;22.60;51.20;;;;;;5084902;28;19962;-46
2024/03/27 05:02:41;;;;;;;;;;;22.60;51.10;;;;;;5082968;28;20357;-46
2024/03/27 05:05:07;;;;;;;;;;;22.60;51.00;;;;;;5082600;28;19934;-45
2024/03/27 05:07:33;;;;;;;;;;;22.60;51.00;;;;;;5079404;28;19956;-49
2024/03/27 05:09:58;;;;;;;;;;;22.60;51.10;;;;;;5067832;28;19933;-48
2024/03/27 05:12:24;;;;;;;;;;;22.60;51.10;;;;;;5069463;28;19912;-51
2024/03/27 05:14:50;;;;;;;;;;;22.60;51.10;;;;;;5069922;28;20016;-46
2024/03/27 05:17:17;;;;;;;;;;;22.60;51.10;;;;;;5070562;28;19917;-47
2024/03/27 05:20:06;;;;;;;;;;;22.60;51.20;;;;;;5073029;28;19923;-47
2024/03/27 05:22:32;;;;;;;;;;;22.60;51.00;;;;;;5074087;28;19908;-45
2024/03/27 05:24:59;;;;;;;;;;;22.70;51.10;;;;;;5057568;28;19934;-48
2024/03/27 05:27:25;;;;;;;;;;;22.60;51.00;;;;;;5057660;28;19955;-45
2024/03/27 05:29:51;;;;;;;;;;;22.60;51.10;;;;;;5048635;28;20763;-49
2024/03/27 05:32:17;;;;;;;;;;;22.60;51.10;;;;;;5074276;28;19908;-46
2024/03/27 05:34:43;;;;;;;;;;;22.50;51.10;;;;;;5073481;28;19912;-44
2024/03/27 05:37:08;;;;;;;;;;;22.50;51.20;;;;;;5074801;28;19912;-44
2024/03/27 05:39:34;;;;;;;;;;;22.60;51.10;;;;;;5074769;28;20451;-45
2024/03/27 05:42:00;;;;;;;;;;;22.60;51.10;;;;;;5065257;28;20038;-48
2024/03/27 05:44:26;;;;;;;;;;;22.60;51.10;;;;;;5075555;28;20019;-44
2024/03/27 05:46:53;;;;;;;;;;;22.60;51.10;;;;;;5080885;28;19934;-43
2024/03/27 05:49:19;;;;;;;;;;;22.60;51.20;;;;;;5081982;28;19912;-46
2024/03/27 05:51:45;;;;;;;;;;;22.60;51.10;;;;;;5081028;28;20050;-43
2024/03/27 05:54:11;;;;;;;;;;;22.60;51.20;;;;;;5075697;28;20377;-43
2024/03/27 05:56:37;;;;;;;;;;;22.50;51.20;;;;;;5075850;28;20337;-43
2024/03/27 05:59:03;;;;;;;;;;;22.60;51.20;;;;;;5081362;28;19928;-45
2024/03/27 06:01:29;;;;;;;;;;;22.60;51.10;;;;;;5075817;28;19908;-44
2024/03/27 06:03:55;;;;;;;;;;;22.60;51.10;;;;;;5083640;28;20285;-44
2024/03/27 06:06:21;;;;;;;;;;;22.60;51.10;;;;;;5082740;28;19947;-42
2024/03/27 06:08:48;;;;;;;;;;;22.60;51.20;;;;;;5074948;28;19944;-43
2024/03/27 06:11:14;;;;;;;;;;;22.60;51.20;;;;;;5069274;28;19919;-42
2024/03/27 06:13:39;;;;;;;;;;;22.50;51.20;;;;;;5070412;28;19912;-44
2024/03/27 06:16:05;;;;;;;;;;;22.50;51.20;;;;;;5068260;28;20385;-44
2024/03/27 06:18:31;;;;;;;;;;;22.50;51.20;;;;;;5083921;28;19920;-45
2024/03/27 06:20:57;;;;;;;;;;;22.60;51.20;;;;;;5074547;28;20578;-45
2024/03/27 06:23:23;;;;;;;;;;;22.60;51.10;;;;;;5071222;28;19917;-46
2024/03/27 06:25:59;;;;;;;;;;;22.60;51.10;;;;;;5072986;28;19987;-45
2024/03/27 06:28:25;;;;;;;;;;;22.60;51.20;;;;;;5076651;28;19913;-45
2024/03/27 06:31:00;;;;;;;;;;;22.60;51.20;;;;;;5072936;28;19912;-44
2024/03/27 06:33:26;;;;;;;;;;;22.50;51.20;;;;;;5072452;28;19919;-46
2024/03/27 06:35:52;;;;;;;;;;;22.50;51.20;;;;;;5075966;28;20319;-45
2024/03/27 06:38:18;;;;;;;;;;;22.60;51.30;;;;;;5065321;28;19920;-44
2024/03/27 06:40:45;;;;;;;;;;;22.60;51.20;;;;;;5070888;28;19966;-50
2024/03/27 06:43:12;;;;;;;;;;;22.60;51.10;;;;;;5065497;28;19909;-45
2024/03/27 06:45:38;;;;;;;;;;;22.60;51.10;;;;;;5070631;28;19917;-46
2024/03/27 06:48:04;;;;;;;;;;;22.60;51.20;;;;;;5072545;28;19977;-44
2024/03/27 06:50:30;;;;;;;;;;;22.60;51.20;;;;;;5064099;28;19913;-44
2024/03/27 06:52:55;;;;;;;;;;;22.60;51.30;;;;;;5083041;28;19951;-45
2024/03/27 06:55:21;;;;;;;;;;;22.50;51.20;;;;;;5069858;28;20476;-45
2024/03/27 06:57:47;;;;;;;;;;;22.50;51.20;;;;;;5067296;28;19924;-45
2024/03/27 07:00:14;;;;;;;;;;;22.60;51.30;;;;;;5070528;28;19917;-46
2024/03/27 07:02:40;;;;;;;;;;;22.60;51.20;;;;;;5072967;28;19919;-44
2024/03/27 07:05:07;;;;;;;;;;;22.60;51.10;;;;;;5067499;28;20027;-47
2024/03/27 07:07:33;;;;;;;;;;;22.60;51.20;;;;;;5069419;28;19912;-45
2024/03/27 07:09:59;;;;;;;;;;;22.60;51.20;;;;;;5067946;28;19915;-46
2024/03/27 07:12:25;;;;;;;;;;;22.60;51.20;;;;;;5064047;28;19912;-44
2024/03/27 07:14:51;;;;;;;;;;;22.50;51.20;;;;;;5069285;28;19916;-46
2024/03/27 07:17:17;;;;;;;;;;;22.50;51.20;;;;;;5067918;28;20007;-45
2024/03/27 07:19:46;;;;;;;;;;;22.50;51.30;;;;;;5066828;28;19912;-45
2024/03/27 07:22:13;;;;;;;;;;;22.60;51.30;;;;;;5064575;28;20007;-48
2024/03/27 07:24:39;;;;;;;;;;;22.60;51.20;;;;;;5067318;28;19913;-45
2024/03/27 07:27:05;;;;;;;;;;;22.60;51.20;;;;;;5068837;28;20336;-46
2024/03/27 07:29:31;;;;;;;;;;;22.60;51.20;;;;;;5067660;28;20542;-47
2024/03/27 07:31:57;;;;;;;;;;;22.60;51.30;;;;;;5067187;28;19920;-46
2024/03/27 07:34:23;;;;;;;;;;;22.60;51.30;;;;;;5061782;28;19916;-47
2024/03/27 07:36:49;;;;;;;;;;;22.50;51.20;;;;;;5065250;28;19913;-45
2024/03/27 07:39:17;;;;;;;;;;;22.50;51.30;;;;;;5068842;28;19920;-45
2024/03/27 07:41:43;;;;;;;;;;;22.50;51.30;;;;;;5064925;28;19918;-47
2024/03/27 07:44:09;;;;;;;;;;;22.60;51.30;;;;;;5068569;28;19927;-43
2024/03/27 07:46:35;;;;;;;;;;;22.60;51.80;;;;;;5066634;28;19916;-44
2024/03/27 07:49:01;;;;;;;;;;;22.60;51.20;;;;;;5064798;28;19923;-43
2024/03/27 07:51:27;;;;;;;;;;;22.60;51.30;;;;;;5068236;28;19912;-43
2024/03/27 07:53:53;;;;;;;;;;;22.60;51.30;;;;;;5065002;28;19935;-45
2024/03/27 07:56:18;;;;;;;;;;;22.60;51.30;;;;;;5064746;28;19908;-45
2024/03/27 07:58:44;;;;;;;;;;;22.50;51.30;;;;;;5062058;28;20620;-43
2024/03/27 08:01:10;;;;;;;;;;;22.50;51.30;;;;;;5067879;28;21179;-43
2024/03/27 08:03:36;;;;;;;;;;;22.60;51.40;;;;;;5073364;28;19912;-44
2024/03/27 08:06:02;;;;;;;;;;;22.60;51.30;;;;;;5065147;28;19916;-47
2024/03/27 08:08:28;;;;;;;;;;;22.60;51.20;;;;;;5069735;28;19913;-43
2024/03/27 08:11:01;;;;;;;;;;;22.60;51.40;;;;;;5071989;28;19912;-46
2024/03/27 08:13:27;;;;;;;;;;;22.60;51.30;;;;;;5071791;28;19913;-46
2024/03/27 08:15:53;;;;;;;;;;;22.50;51.30;;;;;;5070370;28;19916;-48
2024/03/27 08:18:19;;;;;;;;;;;22.50;51.30;;;;;;5067350;28;19921;-45
2024/03/27 08:20:52;;;;;;;;;;;22.50;51.40;;;;;;5081415;28;19912;-46
2024/03/27 08:23:18;;;;;;;;;;;22.60;51.40;;;;;;5069402;28;19935;-46
2024/03/27 08:25:44;;;;;;;;;;;22.60;51.30;;;;;;5102492;28;19916;-45
2024/03/27 08:28:10;;;;;;;;;;;22.60;51.30;;;;;;5065827;28;19944;-43
2024/03/27 08:30:36;;;;;;;;;;;22.60;51.40;;;;;;5074636;28;19912;-46
2024/03/27 08:33:02;;;;;;;;;;;22.60;51.40;;;;;;5066383;28;19912;-48
2024/03/27 08:35:28;;;;;;;;;;;22.60;51.40;;;;;;5063082;28;19912;-47
2024/03/27 08:37:53;;;;;;;;;;;22.50;51.40;;;;;;5066169;28;19924;-43
2024/03/27 08:40:19;;;;;;;;;;;22.50;51.30;;;;;;5065815;28;19979;-47
2024/03/27 08:42:45;;;;;;;;;;;22.60;51.40;;;;;;5064584;28;19924;-48
2024/03/27 08:45:11;;;;;;;;;;;22.60;51.40;;;;;;5067172;28;19932;-46
2024/03/27 08:47:37;;;;;;;;;;;22.60;51.30;;;;;;5064590;28;19939;-49
2024/03/27 08:50:03;;;;;;;;;;;22.60;51.30;;;;;;5067930;28;19938;-45
2024/03/27 08:52:29;;;;;;;;;;;22.60;51.40;;;;;;5064758;28;19909;-44
2024/03/27 08:54:55;;;;;;;;;;;22.60;51.40;;;;;;5067895;28;20376;-45
2024/03/27 08:57:21;;;;;;;;;;;22.50;51.30;;;;;;5067533;28;20670;-44
2024/03/27 08:59:47;;;;;;;;;;;22.50;51.40;;;;;;5067201;28;19908;-44
2024/03/27 09:02:13;;;;;;;;;;;22.50;51.40;;;;;;5071322;28;19912;-47
2024/03/27 09:04:38;;;;;;;;;;;22.60;51.40;;;;;;5066441;28;19912;-46
2024/03/27 09:07:04;;;;;;;;;;;22.60;51.40;;;;;;5064410;28;19913;-44
2024/03/27 09:09:30;;;;;;;;;;;22.60;51.40;;;;;;5069322;28;20005;-46
2024/03/27 09:11:56;;;;;;;;;;;22.60;51.40;;;;;;5065315;28;19917;-48
2024/03/27 09:14:22;;;;;;;;;;;22.60;51.40;;;;;;5077797;28;19912;-47
2024/03/27 09:16:48;;;;;;;;;;;22.50;51.40;;;;;;5078122;28;19947;-47
2024/03/27 09:19:16;;;;;;;;;;;22.50;51.40;;;;;;5081767;28;19928;-45
2024/03/27 09:21:42;;;;;;;;;;;22.60;51.50;;;;;;5074028;28;19912;-45
2024/03/27 09:24:08;;;;;;;;;;;22.60;51.40;;;;;;5074562;28;19919;-44
2024/03/27 09:26:34;;;;;;;;;;;22.60;51.40;;;;;;5066802;28;19959;-46
2024/03/27 09:29:00;;;;;;;;;;;22.60;51.40;;;;;;5066699;28;19913;-46
2024/03/27 09:31:26;;;;;;;;;;;22.60;51.50;;;;;;5073748;28;19913;-45
2024/03/27 09:33:52;;;;;;;;;;;22.60;51.50;;;;;;5076285;28;20003;-43
2024/03/27 09:36:22;;;;;;;;;;;22.50;51.50;;;;;;5084458;28;19918;-45
2024/03/27 09:38:50;;;;;;;;;;;22.50;51.50;;;;;;5072045;28;19927;-45
2024/03/27 09:41:17;;;;;;;;;;;22.60;51.50;;;;;;5067639;28;19919;-46
2024/03/27 09:43:43;;;;;;;;;;;22.60;51.40;;;;;;5066222;28;19923;-45
2024/03/27 09:46:09;;;;;;;;;;;22.60;51.50;;;;;;5073306;28;19908;-45
2024/03/27 09:48:35;;;;;;;;;;;22.60;51.50;;;;;;5070480;28;19908;-44
2024/03/27 09:51:02;;;;;;;;;;;22.60;51.50;;;;;;5065887;28;20297;-50
2024/03/27 09:53:28;;;;;;;;;;;22.60;51.50;;;;;;5066874;28;19908;-44
2024/03/27 09:55:53;;;;;;;;;;;22.50;51.40;;;;;;5069648;28;19974;-45
2024/03/27 09:58:20;;;;;;;;;;;22.50;51.60;;;;;;5099614;28;19916;-45
2024/03/27 10:00:46;;;;;;;;;;;22.60;51.50;;;;;;5068580;28;19908;-46
2024/03/27 10:03:12;;;;;;;;;;;22.60;51.50;;;;;;5065232;28;19923;-44
2024/03/27 10:05:38;;;;;;;;;;;22.60;51.50;;;;;;5073058;28;19908;-46
2024/03/27 10:08:06;;;;;;;;;;;22.60;51.50;;;;;;5073694;28;19912;-43
2024/03/27 10:10:32;;;;;;;;;;;22.60;51.50;;;;;;5073634;28;19904;-46
2024/03/27 10:13:00;;;;;;;;;;;22.60;51.60;;;;;;5083367;28;19912;-46
2024/03/27 10:15:27;;;;;;;;;;;22.50;51.50;;;;;;5083448;28;19908;-48
2024/03/27 10:17:53;;;;;;;;;;;22.50;51.50;;;;;;5075040;28;19916;-44
2024/03/27 10:20:19;;;;;;;;;;;22.60;51.60;;;;;;5075966;28;19909;-46
2024/03/27 10:22:45;;;;;;;;;;;22.60;51.60;;;;;;5075299;28;20329;-45
2024/03/27 10:25:11;;;;;;;;;;;22.60;52.10;;;;;;5063668;28;19913;-48
2024/03/27 10:27:37;;;;;;;;;;;22.60;51.50;;;;;;5088118;28;19915;-45
2024/03/27 10:30:03;;;;;;;;;;;22.60;51.60;;;;;;5068344;28;19916;-45
2024/03/27 10:32:29;;;;;;;;;;;22.60;51.60;;;;;;5077855;28;19905;-44
2024/03/27 10:34:56;;;;;;;;;;;22.50;51.50;;;;;;5079591;28;19915;-44
2024/03/27 10:37:22;;;;;;;;;;;22.50;51.50;;;;;;5071159;28;19966;-45
2024/03/27 10:39:49;;;;;;;;;;;22.50;51.70;;;;;;5072734;28;19908;-48
2024/03/27 10:42:24;;;;;;;;;;;22.60;51.60;;;;;;5079454;28;19932;-50
2024/03/27 10:44:57;;;;;;;;;;;22.60;51.50;;;;;;5070530;28;19931;-47
2024/03/27 10:47:23;;;;;;;;;;;22.60;51.60;;;;;;5064850;28;19930;-46
2024/03/27 10:49:50;;;;;;;;;;;22.60;51.60;;;;;;5073598;28;19908;-45
2024/03/27 10:52:17;;;;;;;;;;;22.60;51.60;;;;;;5076274;28;19951;-50
2024/03/27 10:54:43;;;;;;;;;;;22.60;51.60;;;;;;5074974;28;19919;-50
2024/03/27 10:57:09;;;;;;;;;;;22.50;51.60;;;;;;5066387;28;19980;-46
2024/03/27 10:59:35;;;;;;;;;;;22.50;51.60;;;;;;5074643;28;19955;-49
2024/03/27 11:02:01;;;;;;;;;;;22.60;51.60;;;;;;5065450;28;19913;-46
2024/03/27 11:04:31;;;;;;;;;;;22.60;51.60;;;;;;5075994;28;19948;-46
2024/03/27 11:06:57;;;;;;;;;;;22.60;51.60;;;;;;5078855;28;19919;-49
2024/03/27 11:09:23;;;;;;;;;;;22.60;51.60;;;;;;5065720;28;19908;-44
2024/03/27 11:11:49;;;;;;;;;;;22.60;51.70;;;;;;5066564;28;19912;-50
2024/03/27 11:14:18;;;;;;;;;;;22.60;51.70;;;;;;5068440;28;19948;-43
2024/03/27 11:16:50;;;;;;;;;;;22.50;51.60;;;;;;5066448;28;19952;-45
2024/03/27 11:19:16;;;;;;;;;;;22.50;51.60;;;;;;5064643;28;19980;-45
2024/03/27 11:21:42;;;;;;;;;;;22.60;51.70;;;;;;5064326;28;19912;-47
2024/03/27 11:24:11;;;;;;;;;;;22.60;51.70;;;;;;5069413;28;19912;-45
2024/03/27 11:26:37;;;;;;;;;;;22.60;51.70;;;;;;5067278;28;19947;-43
2024/03/27 11:29:05;;;;;;;;;;;22.60;51.70;;;;;;5064119;28;19913;-44
2024/03/27 11:31:39;;;;;;;;;;;22.60;51.70;;;;;;5068683;28;19916;-44
2024/03/27 11:34:05;;;;;;;;;;;22.60;51.70;;;;;;5065028;28;19983;-44
2024/03/27 11:36:31;;;;;;;;;;;22.50;51.80;;;;;;5064207;28;19952;-44
2024/03/27 11:38:57;;;;;;;;;;;22.50;51.70;;;;;;5073514;28;19966;-47
2024/03/27 11:41:23;;;;;;;;;;;22.60;51.80;;;;;;5070665;28;19908;-45
2024/03/27 11:43:51;;;;;;;;;;;22.60;51.70;;;;;;5064744;28;19963;-46
2024/03/27 11:46:17;;;;;;;;;;;22.60;51.70;;;;;;5067378;28;20014;-47
2024/03/27 11:48:42;;;;;;;;;;;22.60;51.70;;;;;;5066628;28;19951;-45
2024/03/27 11:51:08;;;;;;;;;;;22.60;51.70;;;;;;5074252;28;19912;-46
2024/03/27 11:53:34;;;;;;;;;;;22.60;51.70;;;;;;5071136;28;19905;-46
2024/03/27 11:56:00;;;;;;;;;;;22.50;51.70;;;;;;5070345;28;19948;-46
2024/03/27 11:58:26;;;;;;;;;;;22.50;51.70;;;;;;5068816;28;19941;-45
2024/03/27 12:00:52;;;;;;;;;;;22.60;51.80;;;;;;5073880;28;20326;-46
2024/03/27 12:03:18;;;;;;;;;;;22.60;51.70;;;;;;5070635;28;20033;-44
2024/03/27 12:05:43;;;;;;;;;;;22.60;51.70;;;;;;5071148;28;19909;-44
2024/03/27 12:08:09;;;;;;;;;;;22.60;51.70;;;;;;5070340;28;19923;-46
2024/03/27 12:10:35;;;;;;;;;;;22.60;51.80;;;;;;5069107;28;19912;-43
2024/03/27 12:13:04;;;;;;;;;;;22.60;51.70;;;;;;5072695;28;19920;-45
2024/03/27 12:15:30;;;;;;;;;;;22.50;51.70;;;;;;5074516;28;19912;-44
2024/03/27 12:18:00;;;;;;;;;;;22.50;51.70;;;;;;5065734;28;19923;-46
2024/03/27 12:20:32;;;;;;;;;;;22.60;51.80;;;;;;5064101;28;19936;-48
2024/03/27 12:22:58;;;;;;;;;;;22.60;51.70;;;;;;5070166;28;19975;-49
2024/03/27 12:25:28;;;;;;;;;;;22.60;51.70;;;;;;5067187;28;19917;-46
2024/03/27 12:27:53;;;;;;;;;;;22.60;51.70;;;;;;5070762;28;19912;-46
2024/03/27 12:30:19;;;;;;;;;;;22.60;51.80;;;;;;5063479;28;20486;-45
2024/03/27 12:32:45;;;;;;;;;;;22.60;51.80;;;;;;5068135;28;19916;-47
2024/03/27 12:35:11;;;;;;;;;;;22.50;51.70;;;;;;5072491;28;19920;-47
2024/03/27 12:37:37;;;;;;;;;;;22.50;51.70;;;;;;5079918;28;20395;-47
2024/03/27 12:40:04;;;;;;;;;;;22.50;51.70;;;;;;5073762;28;19932;-47
2024/03/27 12:42:30;;;;;;;;;;;22.60;51.80;;;;;;5062264;28;19956;-44
2024/03/27 12:44:55;;;;;;;;;;;22.60;51.80;;;;;;5070598;28;19923;-47
2024/03/27 12:47:21;;;;;;;;;;;22.60;52.00;;;;;;5077134;28;19912;-46
2024/03/27 12:49:47;;;;;;;;;;;22.60;51.70;;;;;;5073403;28;19916;-46
2024/03/27 12:52:14;;;;;;;;;;;22.60;51.70;;;;;;5076824;28;19980;-45
2024/03/27 12:54:40;;;;;;;;;;;22.60;51.80;;;;;;5084343;28;19919;-44
2024/03/27 12:57:06;;;;;;;;;;;22.60;51.90;;;;;;5087161;28;19920;-43
2024/03/27 12:59:32;;;;;;;;;;;22.50;51.70;;;;;;5067883;28;19913;-46
2024/03/27 13:01:58;;;;;;;;;;;22.60;51.80;;;;;;5072884;28;19913;-44
2024/03/27 13:04:24;;;;;;;;;;;22.60;51.80;;;;;;5066986;28;19943;-45
2024/03/27 13:06:50;;;;;;;;;;;22.60;51.80;;;;;;5074752;28;20706;-46
2024/03/27 13:09:16;;;;;;;;;;;22.60;51.80;;;;;;5078299;28;20027;-44
2024/03/27 13:11:43;;;;;;;;;;;22.60;51.80;;;;;;5081220;28;19967;-44
2024/03/27 13:14:09;;;;;;;;;;;22.60;51.80;;;;;;5076402;28;19913;-44
2024/03/27 13:16:34;;;;;;;;;;;22.60;51.80;;;;;;5083373;28;19927;-45
2024/03/27 13:19:00;;;;;;;;;;;22.50;51.80;;;;;;5074775;28;19916;-44
2024/03/27 13:21:26;;;;;;;;;;;22.60;52.00;;;;;;5077667;28;19912;-44
2024/03/27 13:23:52;;;;;;;;;;;22.60;51.80;;;;;;5075574;28;19935;-44
2024/03/27 13:26:18;;;;;;;;;;;22.70;51.80;;;;;;5077215;28;19912;-44
2024/03/27 13:28:44;;;;;;;;;;;22.70;51.80;;;;;;5076570;28;20014;-43
2024/03/27 13:31:10;;;;;;;;;;;22.60;51.80;;;;;;5076013;28;19913;-46
2024/03/27 13:33:38;;;;;;;;;;;22.60;51.80;;;;;;5076767;28;19912;-46
2024/03/27 13:36:04;;;;;;;;;;;22.60;51.90;;;;;;5081927;28;20030;-47
2024/03/27 13:38:30;;;;;;;;;;;22.60;51.90;;;;;;5075094;28;19920;-44
2024/03/27 13:40:55;;;;;;;;;;;22.60;51.90;;;;;;5075768;28;19951;-44
2024/03/27 13:43:21;;;;;;;;;;;22.60;52.00;;;;;;5083768;28;19912;-45
2024/03/27 13:45:48;;;;;;;;;;;22.70;51.90;;;;;;5082962;28;19959;-45
2024/03/27 13:48:14;;;;;;;;;;;22.70;51.90;;;;;;5083073;28;19987;-46
2024/03/27 13:50:40;;;;;;;;;;;22.70;51.90;;;;;;5083411;28;19955;-49
2024/03/27 13:53:05;;;;;;;;;;;22.70;52.00;;;;;;5075217;28;19919;-44
2024/03/27 13:55:31;;;;;;;;;;;22.60;51.90;;;;;;5077990;28;20006;-44
2024/03/27 13:57:57;;;;;;;;;;;22.60;51.90;;;;;;5065629;28;20524;-44
2024/03/27 14:00:23;;;;;;;;;;;22.60;51.90;;;;;;5062325;28;19912;-45
2024/03/27 14:02:49;;;;;;;;;;;22.60;51.90;;;;;;5065738;28;20004;-48
2024/03/27 14:05:15;;;;;;;;;;;22.60;51.90;;;;;;5069170;28;19966;-44
2024/03/27 14:07:41;;;;;;;;;;;22.70;52.00;;;;;;5070197;28;19913;-45
2024/03/27 14:10:07;;;;;;;;;;;22.70;51.90;;;;;;5072549;28;19912;-43
2024/03/27 14:12:33;;;;;;;;;;;22.70;51.90;;;;;;5077897;28;19908;-42